Time;durP1;ratioP1;P1;durP2;ratioP2;P2;SDS_P1;SDS_P2;PMS_P1;PMS_P2;Temp;Humidity;BMP_temperature;BMP_pressure;BME280_temperature;BME280_humidity;BME280_pressure;Samples;Min_cycle;Max_cycle;Signal;HPM_P1;HPM_P2
2022/03/23 00:01:45;;;;;;;19.60;16.37;;;7.50;50.00;;;;;;5009342;28;20899;-81
2022/03/23 00:04:12;;;;;;;19.03;15.60;;;7.30;50.00;;;;;;5013328;28;20442;-81
2022/03/23 00:06:38;;;;;;;19.57;15.10;;;7.30;49.30;;;;;;5015660;28;20834;-81
2022/03/23 00:09:05;;;;;;;22.93;17.30;;;7.30;48.30;;;;;;5015936;28;20485;-80
2022/03/23 00:11:33;;;;;;;20.30;15.47;;;7.20;49.10;;;;;;5015802;28;20488;-80
2022/03/23 00:14:00;;;;;;;23.83;18.03;;;7.20;48.00;;;;;;5015653;28;20451;-80
2022/03/23 00:16:26;;;;;;;21.13;16.73;;;7.20;48.70;;;;;;5009300;28;20474;-81
2022/03/23 00:18:54;;;;;;;22.47;16.17;;;7.20;48.60;;;;;;5008093;28;20458;-80
2022/03/23 00:21:21;;;;;;;24.33;15.27;;;7.20;49.00;;;;;;5007914;28;20444;-80
2022/03/23 00:23:48;;;;;;;21.50;16.70;;;7.20;49.20;;;;;;5006382;28;20510;-80
2022/03/23 00:26:15;;;;;;;21.00;16.03;;;7.10;49.30;;;;;;5007417;28;20425;-80
2022/03/23 00:28:42;;;;;;;26.00;16.90;;;7.00;66.10;;;;;;5028821;23;20476;-81
2022/03/23 00:31:09;;;;;;;22.43;16.90;;;7.10;50.30;;;;;;5001315;28;20234;-81
2022/03/23 00:33:36;;;;;;;19.73;16.17;;;7.10;49.90;;;;;;5004746;28;20478;-82
2022/03/23 00:36:05;;;;;;;21.58;17.15;;;7.00;50.10;;;;;;5001263;28;20420;-80
2022/03/23 00:38:32;;;;;;;20.30;15.70;;;7.00;63.40;;;;;;5002198;28;20210;-80
2022/03/23 00:40:58;;;;;;;26.60;17.27;;;7.00;50.50;;;;;;5002278;28;20202;-81
2022/03/23 00:43:25;;;;;;;26.17;17.57;;;6.30;50.80;;;;;;5003233;28;20280;-81
2022/03/23 00:45:52;;;;;;;21.90;17.10;;;7.00;50.90;;;;;;5002970;28;20506;-82
2022/03/23 00:48:19;;;;;;;25.53;17.27;;;7.00;51.10;;;;;;5003000;28;20457;-83
2022/03/23 00:50:45;;;;;;;21.13;17.03;;;7.00;50.60;;;;;;5003189;28;20506;-79
2022/03/23 00:53:13;;;;;;;20.53;17.20;;;6.90;50.90;;;;;;5005314;28;20776;-79
2022/03/23 00:55:42;;;;;;;21.55;17.17;;;6.90;51.50;;;;;;5007539;28;20422;-80
2022/03/23 00:58:09;;;;;;;22.30;17.38;;;6.90;51.40;;;;;;5008067;28;20205;-81
2022/03/23 01:00:36;;;;;;;26.67;18.05;;;6.90;51.50;;;;;;5010519;28;20222;-81
2022/03/23 01:03:04;;;;;;;22.33;16.80;;;6.90;52.00;;;;;;5006349;28;20680;-80
2022/03/23 01:05:31;;;;;;;22.15;15.68;;;6.80;51.90;;;;;;5006308;28;20811;-80
2022/03/23 01:07:57;;;;;;;21.30;16.57;;;6.80;51.40;;;;;;5002509;28;20213;-80
2022/03/23 01:10:25;;;;;;;20.08;17.35;;;6.70;52.30;;;;;;5004297;28;20474;-81
2022/03/23 01:12:54;;;;;;;25.30;16.17;;;6.70;51.60;;;;;;5001651;28;20205;-83
2022/03/23 01:15:20;;;;;;;23.52;18.33;;;6.80;51.40;;;;;;5001472;28;20436;-82
2022/03/23 01:17:47;;;;;;;24.17;17.07;;;6.80;51.30;;;;;;5001591;28;20733;-80
2022/03/23 01:20:15;;;;;;;25.45;17.60;;;6.80;53.00;;;;;;5001481;28;20472;-82
2022/03/23 01:22:44;;;;;;;20.73;16.43;;;6.80;52.10;;;;;;5002691;28;20260;-79
2022/03/23 01:25:12;;;;;;;21.70;16.33;;;6.70;53.20;;;;;;5001024;28;20448;-79
2022/03/23 01:27:42;;;;;;;23.85;16.90;;;6.90;69.00;;;;;;5000496;28;20556;-80
2022/03/23 01:30:11;;;;;;;24.83;17.08;;;7.00;77.30;;;;;;4999978;28;20266;-79
2022/03/23 01:32:39;;;;;;;26.45;17.92;;;6.80;51.60;;;;;;4996574;28;20273;-80
2022/03/23 01:35:07;;;;;;;30.03;18.63;;;6.80;51.60;;;;;;4998726;28;20265;-81
2022/03/23 01:37:34;;;;;;;27.33;17.60;;;6.80;51.80;;;;;;4999241;28;20434;-80
2022/03/23 01:40:01;;;;;;;30.88;18.00;;;6.90;52.20;;;;;;5000409;28;20468;-82
2022/03/23 01:42:28;;;;;;;21.37;16.13;;;7.00;51.70;;;;;;5002066;28;20277;-78
2022/03/23 01:44:56;;;;;;;27.95;18.48;;;7.00;51.60;;;;;;5006745;28;20427;-79
2022/03/23 01:47:23;;;;;;;21.98;17.00;;;6.90;51.60;;;;;;5008863;28;20206;-80
2022/03/23 01:49:52;;;;;;;22.90;17.67;;;6.60;76.60;;;;;;5007249;28;20229;-78
2022/03/23 01:52:21;;;;;;;22.33;16.25;;;6.60;52.60;;;;;;5007075;28;21072;-77
2022/03/23 01:54:48;;;;;;;23.88;17.67;;;6.60;52.90;;;;;;5008658;28;20210;-81
2022/03/23 01:57:16;;;;;;;29.10;19.98;;;6.50;53.20;;;;;;5004259;28;20214;-81
2022/03/23 01:59:43;;;;;;;24.43;18.33;;;6.40;53.30;;;;;;5000803;28;20277;-81
2022/03/23 02:02:11;;;;;;;23.02;17.13;;;6.40;53.30;;;;;;5000646;28;20452;-82
2022/03/23 02:04:38;;;;;;;21.20;16.73;;;6.40;53.90;;;;;;5002523;28;20668;-81
2022/03/23 02:07:05;;;;;;;23.80;16.97;;;6.30;54.00;;;;;;5002240;28;20240;-82
2022/03/23 02:09:33;;;;;;;22.55;16.60;;;6.30;53.70;;;;;;4998808;28;20470;-79
2022/03/23 02:12:02;;;;;;;24.87;18.40;;;6.30;53.90;;;;;;5000486;28;20225;-81
2022/03/23 02:14:29;;;;;;;24.17;18.75;;;6.20;54.20;;;;;;5005117;28;20458;-79
2022/03/23 02:16:55;;;;;;;25.83;17.50;;;6.20;54.90;;;;;;5003558;28;20236;-81
2022/03/23 02:19:23;;;;;;;28.27;19.67;;;6.20;54.70;;;;;;5001816;28;20458;-81
2022/03/23 02:21:53;;;;;;;27.92;17.55;;;6.20;54.90;;;;;;5000188;28;20201;-82
2022/03/23 02:24:23;;;;;;;26.65;17.33;;;6.20;55.20;;;;;;5003542;28;20237;-80
2022/03/23 02:26:50;;;;;;;23.33;17.23;;;6.10;55.40;;;;;;5001931;28;20217;-81
2022/03/23 02:29:17;;;;;;;28.15;17.73;;;6.10;56.60;;;;;;4998115;28;20233;-80
2022/03/23 02:31:44;;;;;;;26.13;18.48;;;6.00;56.00;;;;;;4999057;28;20279;-80
2022/03/23 02:34:12;;;;;;;23.60;18.08;;;6.10;56.20;;;;;;4998980;28;20216;-81
2022/03/23 02:36:38;;;;;;;26.35;18.35;;;6.00;56.10;;;;;;4999691;28;20205;-81
2022/03/23 02:39:06;;;;;;;21.58;16.58;;;6.00;56.20;;;;;;4999258;28;20276;-81
2022/03/23 02:41:33;;;;;;;25.92;17.25;;;6.00;56.20;;;;;;5000091;28;20205;-81
2022/03/23 02:44:00;;;;;;;26.05;16.70;;;6.00;56.30;;;;;;5000786;28;20239;-80
2022/03/23 02:46:33;;;;;;;23.60;16.55;;;5.90;56.70;;;;;;5008996;28;20212;-82
2022/03/23 02:49:00;;;;;;;22.73;17.25;;;5.80;57.20;;;;;;5003736;28;20291;-81
2022/03/23 02:51:26;;;;;;;25.02;17.92;;;5.90;57.40;;;;;;5003595;28;20252;-78
2022/03/23 03:02:21;;;;;;;23.02;17.45;;;5.70;58.80;;;;;;5006297;28;20643;-81
2022/03/23 03:04:48;;;;;;;28.80;18.92;;;5.80;59.10;;;;;;5011025;28;20195;-81
2022/03/23 03:07:15;;;;;;;24.15;18.20;;;5.60;58.90;;;;;;5008413;28;20201;-78
2022/03/23 03:09:40;;;;;;;22.13;16.50;;;5.60;59.50;;;;;;5003729;28;20225;-81
2022/03/23 03:12:10;;;;;;;26.50;17.93;;;5.60;60.50;;;;;;5005053;28;20228;-80
2022/03/23 03:14:37;;;;;;;28.65;17.98;;;5.60;61.10;;;;;;5005811;28;20236;-80
2022/03/23 03:17:04;;;;;;;25.15;18.08;;;5.60;97.80;;;;;;5008455;28;20205;-79
2022/03/23 03:19:31;;;;;;;20.70;16.08;;;5.60;63.20;;;;;;5006336;28;20248;-79
2022/03/23 03:21:57;;;;;;;23.50;17.55;;;5.40;63.30;;;;;;5006279;28;20201;-81
2022/03/23 03:24:24;;;;;;;22.60;17.20;;;5.40;64.20;;;;;;5003429;28;20209;-81
2022/03/23 03:26:51;;;;;;;22.27;18.58;;;5.50;84.60;;;;;;5009590;28;20197;-81
2022/03/23 03:29:19;;;;;;;25.60;17.80;;;5.50;87.00;;;;;;5019372;28;20280;-79
2022/03/23 03:31:45;;;;;;;28.45;18.40;;;5.30;87.00;;;;;;5009360;28;20225;-81
2022/03/23 03:34:12;;;;;;;23.88;17.83;;;5.40;88.70;;;;;;5005144;28;20236;-81
2022/03/23 03:36:40;;;;;;;26.00;19.88;;;5.40;89.10;;;;;;5004067;28;20209;-81
2022/03/23 03:39:08;;;;;;;23.73;17.10;;;5.30;90.10;;;;;;5003323;28;20235;-82
2022/03/23 03:41:34;;;;;;;27.27;18.13;;;5.30;90.70;;;;;;5003234;28;20229;-82
2022/03/23 03:44:01;;;;;;;29.98;19.33;;;5.30;92.60;;;;;;5002446;28;20208;-82
2022/03/23 03:46:29;;;;;;;25.08;19.55;;;5.30;93.90;;;;;;5004011;28;20626;-82
2022/03/23 03:48:57;;;;;;;23.63;17.45;;;5.50;94.30;;;;;;5002240;28;20225;-81
2022/03/23 03:51:24;;;;;;;24.83;17.70;;;5.30;94.90;;;;;;5002340;28;20657;-81
2022/03/23 03:53:51;;;;;;;28.40;19.58;;;5.10;96.30;;;;;;5001781;28;20256;-81
2022/03/23 03:56:17;;;;;;;25.85;18.42;;;5.00;96.70;;;;;;5000386;28;20209;-79
2022/03/23 03:58:44;;;;;;;22.33;16.98;;;;;;;;;;5003754;28;20204;-82
2022/03/23 04:01:14;;;;;;;27.73;17.88;;;5.10;96.90;;;;;;5002264;28;20204;-81
2022/03/23 04:03:42;;;;;;;27.63;19.02;;;5.10;97.90;;;;;;5002162;28;20212;-82
2022/03/23 04:06:08;;;;;;;25.60;18.38;;;4.70;98.50;;;;;;5003067;28;20205;-79
2022/03/23 04:08:35;;;;;;;33.88;19.75;;;4.90;99.90;;;;;;5002922;28;20197;-79
2022/03/23 04:11:02;;;;;;;25.77;19.17;;;4.80;87.50;;;;;;5002895;28;20714;-79
2022/03/23 04:13:29;;;;;;;25.23;19.00;;;4.80;99.90;;;;;;5004137;28;20224;-78
2022/03/23 04:15:55;;;;;;;29.00;20.10;;;4.40;90.30;;;;;;5006111;28;20238;-79
2022/03/23 04:18:22;;;;;;;29.55;19.75;;;4.60;91.20;;;;;;5004474;28;20260;-81
2022/03/23 04:20:50;;;;;;;27.02;18.20;;;4.70;92.20;;;;;;5002004;28;20692;-79
2022/03/23 04:23:17;;;;;;;27.48;19.75;;;4.60;92.90;;;;;;5002173;28;20263;-81
2022/03/23 04:25:43;;;;;;;26.55;19.50;;;4.50;92.90;;;;;;5004544;28;20205;-82
2022/03/23 04:28:10;;;;;;;26.02;18.17;;;4.70;94.10;;;;;;5004760;28;20236;-80
2022/03/23 04:30:37;;;;;;;27.80;18.23;;;4.60;95.00;;;;;;5004435;28;20711;-81
2022/03/23 04:33:05;;;;;;;25.45;17.95;;;4.80;96.60;;;;;;5003432;28;20236;-82
2022/03/23 04:35:31;;;;;;;28.40;19.90;;;4.50;96.40;;;;;;5003264;28;20216;-81
2022/03/23 04:37:59;;;;;;;27.90;18.20;;;4.60;91.60;;;;;;5004756;28;20232;-79
2022/03/23 04:40:26;;;;;;;25.65;18.92;;;4.70;91.90;;;;;;5018958;28;20221;-79
2022/03/23 04:42:53;;;;;;;28.00;18.35;;;4.80;92.50;;;;;;5020158;28;20193;-81
2022/03/23 04:45:20;;;;;;;27.15;19.63;;;4.80;92.80;;;;;;5011005;28;20556;-81
2022/03/23 04:47:47;;;;;;;25.02;17.90;;;4.70;93.20;;;;;;5001549;28;20240;-81
2022/03/23 04:50:14;;;;;;;24.27;16.48;;;4.70;92.80;;;;;;5000913;28;20225;-82
2022/03/23 04:52:43;;;;;;;29.65;19.05;;;4.60;95.10;;;;;;5000835;28;20221;-81
2022/03/23 04:55:12;;;;;;;28.20;20.13;;;4.50;96.60;;;;;;5000532;28;20209;-81
2022/03/23 04:57:40;;;;;;;29.25;18.95;;;4.40;96.60;;;;;;5003156;28;20240;-81
2022/03/23 05:00:10;;;;;;;25.92;19.40;;;4.50;97.10;;;;;;5000328;28;20252;-81
2022/03/23 05:02:38;;;;;;;36.42;19.00;;;4.50;97.40;;;;;;5000089;28;20272;-81
2022/03/23 05:05:05;;;;;;;31.60;17.60;;;4.50;98.50;;;;;;4999082;28;20216;-81
2022/03/23 05:07:31;;;;;;;26.75;19.33;;;4.50;99.20;;;;;;4998293;28;20236;-80
2022/03/23 05:09:58;;;;;;;33.15;21.60;;;4.50;98.10;;;;;;5000473;28;20225;-81
2022/03/23 05:12:26;;;;;;;27.77;19.83;;;4.60;97.80;;;;;;5017144;28;20213;-80
2022/03/23 05:14:52;;;;;;;25.08;18.10;;;4.60;98.30;;;;;;5013077;28;20205;-81
2022/03/23 05:17:19;;;;;;;27.05;18.20;;;4.60;96.80;;;;;;5000017;28;20208;-81
2022/03/23 05:19:46;;;;;;;25.85;19.08;;;4.50;99.90;;;;;;5000441;28;20220;-80
2022/03/23 05:22:12;;;;;;;29.02;18.95;;;4.60;96.10;;;;;;4999282;28;20201;-81
2022/03/23 05:24:39;;;;;;;30.13;20.23;;;4.70;95.80;;;;;;4998622;28;20208;-81
2022/03/23 05:27:06;;;;;;;27.10;18.80;;;4.70;96.20;;;;;;5000906;28;20209;-79
2022/03/23 05:29:34;;;;;;;28.55;18.60;;;4.80;98.00;;;;;;5001462;28;20275;-79
2022/03/23 05:32:00;;;;;;;28.88;20.13;;;4.80;97.30;;;;;;4997409;28;20224;-79
2022/03/23 05:34:27;;;;;;;29.00;19.05;;;4.80;96.50;;;;;;4998816;28;20237;-80
2022/03/23 05:36:54;;;;;;;28.58;18.80;;;5.00;97.70;;;;;;4997779;28;20236;-80
2022/03/23 05:39:20;;;;;;;28.80;18.90;;;5.00;98.10;;;;;;4997442;28;20225;-80
2022/03/23 05:41:47;;;;;;;26.40;18.70;;;5.00;96.70;;;;;;4998515;28;20288;-81
2022/03/23 05:44:14;;;;;;;26.05;18.20;;;5.00;96.80;;;;;;4997879;28;20342;-80
2022/03/23 05:46:42;;;;;;;27.23;19.13;;;5.00;96.10;;;;;;5001930;28;20263;-78
2022/03/23 05:49:09;;;;;;;28.38;19.30;;;5.20;96.50;;;;;;5001924;28;20712;-79
2022/03/23 05:51:35;;;;;;;30.10;19.67;;;5.10;96.10;;;;;;5001381;28;20209;-80
2022/03/23 05:54:02;;;;;;;27.40;19.40;;;5.20;95.70;;;;;;5003141;28;20217;-78
2022/03/23 05:56:29;;;;;;;26.73;20.55;;;5.20;96.00;;;;;;5003964;28;20660;-80
2022/03/23 05:58:56;;;;;;;32.60;20.83;;;5.30;96.40;;;;;;5001548;28;20296;-78
2022/03/23 06:01:22;;;;;;;30.98;19.00;;;5.40;95.90;;;;;;5003281;28;20693;-80
2022/03/23 06:03:50;;;;;;;35.97;20.13;;;5.60;94.40;;;;;;5000301;28;20197;-81
2022/03/23 06:06:17;;;;;;;30.88;20.25;;;5.80;93.10;;;;;;4999649;28;20206;-79
2022/03/23 06:08:44;;;;;;;26.65;18.67;;;6.00;99.90;;;;;;4998937;28;20236;-80
2022/03/23 06:11:10;;;;;;;29.65;20.67;;;5.80;92.80;;;;;;4999056;28;20205;-80
2022/03/23 06:13:41;;;;;;;37.65;23.55;;;5.90;92.30;;;;;;5000617;28;20224;-80
2022/03/23 06:16:14;;;;;;;27.77;19.15;;;5.90;92.80;;;;;;5000713;28;20576;-81
2022/03/23 06:18:51;;;;;;;32.50;21.17;;;6.10;99.90;;;;;;4999238;28;20610;-80
2022/03/23 06:21:19;;;;;;;30.58;19.58;;;5.90;91.40;;;;;;4999694;28;20192;-81
2022/03/23 06:23:46;;;;;;;28.08;19.80;;;5.10;91.50;;;;;;4999677;28;20209;-81
2022/03/23 06:26:12;;;;;;;27.48;19.70;;;5.90;91.60;;;;;;4999019;28;20205;-81
2022/03/23 06:28:39;;;;;;;30.35;19.25;;;6.10;98.90;;;;;;5001838;28;20205;-78
2022/03/23 06:31:06;;;;;;;28.55;20.27;;;6.00;91.70;;;;;;5020960;23;20235;-80
2022/03/23 06:33:33;;;;;;;27.92;19.13;;;6.00;91.70;;;;;;5008413;28;20227;-80
2022/03/23 06:35:59;;;;;;;30.58;21.20;;;6.00;91.30;;;;;;5002858;28;20212;-79
2022/03/23 06:38:27;;;;;;;33.83;20.48;;;6.10;91.70;;;;;;5000367;28;20215;-79
2022/03/23 06:40:54;;;;;;;30.27;20.58;;;6.10;91.90;;;;;;5001366;28;20236;-79
2022/03/23 06:43:20;;;;;;;27.63;19.52;;;6.10;91.40;;;;;;5003412;28;20230;-81
2022/03/23 06:45:49;;;;;;;32.40;20.38;;;6.20;91.20;;;;;;5004402;28;20577;-80
2022/03/23 06:48:15;;;;;;;31.85;19.52;;;6.30;90.90;;;;;;5014250;28;20205;-79
2022/03/23 06:50:42;;;;;;;30.77;20.30;;;6.30;91.30;;;;;;5012872;28;20231;-79
2022/03/23 06:53:08;;;;;;;39.10;20.10;;;6.30;90.50;;;;;;5015081;28;20784;-80
2022/03/23 06:55:38;;;;;;;27.98;18.98;;;6.30;98.60;;;;;;5014075;28;20649;-79
2022/03/23 06:58:05;;;;;;;26.65;18.70;;;6.50;90.60;;;;;;5013357;28;20273;-79
2022/03/23 07:00:31;;;;;;;28.38;19.15;;;6.50;90.00;;;;;;5003143;28;20225;-81
2022/03/23 07:02:58;;;;;;;36.22;19.50;;;6.60;88.80;;;;;;5000277;28;20602;-80
2022/03/23 07:05:25;;;;;;;34.58;20.75;;;6.70;88.40;;;;;;5001792;28;20233;-80
2022/03/23 07:10:37;;;;;;;31.23;21.15;;;6.80;88.30;;;;;;5000607;28;20275;-80
2022/03/23 07:13:04;;;;;;;40.25;20.00;;;6.90;88.80;;;;;;5001136;28;20225;-80
2022/03/23 07:15:31;;;;;;;30.23;20.05;;;7.00;88.30;;;;;;5000945;28;20558;-81
2022/03/23 07:17:58;;;;;;;31.70;22.20;;;6.80;97.40;;;;;;5001296;28;20207;-81
2022/03/23 07:20:27;;;;;;;32.00;21.95;;;6.90;96.70;;;;;;5004439;28;20229;-81
2022/03/23 07:22:54;;;;;;;28.92;19.73;;;7.10;89.20;;;;;;5009898;28;20207;-80
2022/03/23 07:25:21;;;;;;;28.70;22.07;;;7.00;96.90;;;;;;5009674;28;20209;-82
2022/03/23 07:27:49;;;;;;;30.10;20.77;;;7.30;88.60;;;;;;5009635;28;20444;-80
2022/03/23 07:30:16;;;;;;;36.22;24.20;;;7.40;89.20;;;;;;5010380;28;20982;-79
2022/03/23 07:32:43;;;;;;;39.47;23.00;;;7.50;89.00;;;;;;5012839;28;20235;-80
2022/03/23 07:35:10;;;;;;;40.22;21.73;;;7.60;88.70;;;;;;5016013;28;20445;-80
2022/03/23 07:37:36;;;;;;;32.53;22.47;;;7.70;87.50;;;;;;5016778;28;20215;-81
2022/03/23 07:40:05;;;;;;;34.25;21.77;;;7.60;94.40;;;;;;5013497;28;20449;-80
2022/03/23 07:42:33;;;;;;;42.00;22.20;;;8.00;87.60;;;;;;5008031;28;20202;-81
2022/03/23 07:45:01;;;;;;;26.40;18.60;;;8.10;85.70;;;;;;5004971;28;20942;-81
2022/03/23 07:47:27;;;;;;;38.50;23.90;;;8.20;87.90;;;;;;5003591;28;20899;-80
2022/03/23 07:49:54;;;;;;;32.17;20.60;;;8.30;86.10;;;;;;5003329;28;20475;-80
2022/03/23 07:52:21;;;;;;;32.53;19.70;;;8.40;86.10;;;;;;5009519;28;20427;-80
2022/03/23 07:54:47;;;;;;;34.67;20.37;;;8.50;88.40;;;;;;5002723;28;20497;-81
2022/03/23 07:57:14;;;;;;;43.13;20.47;;;8.60;85.20;;;;;;5001386;28;20479;-80
2022/03/23 07:59:41;;;;;;;40.87;22.17;;;8.70;90.20;;;;;;5001385;28;20481;-81
2022/03/23 08:02:09;;;;;;;36.63;21.87;;;8.80;85.30;;;;;;5003135;28;20431;-80
2022/03/23 08:04:36;;;;;;;37.00;22.77;;;8.80;86.60;;;;;;5002032;28;20422;-80
2022/03/23 08:07:03;;;;;;;38.37;23.77;;;8.90;84.70;;;;;;5004532;28;20808;-80
2022/03/23 08:09:30;;;;;;;41.80;24.10;;;9.00;81.60;;;;;;5003345;28;20503;-81
2022/03/23 08:11:57;;;;;;;33.17;22.10;;;9.10;80.50;;;;;;5002493;28;20422;-81
2022/03/23 08:14:23;;;;;;;36.37;22.80;;;9.20;80.70;;;;;;5003837;28;20549;-79
2022/03/23 08:16:52;;;;;;;48.00;23.73;;;9.30;81.40;;;;;;5001822;28;20449;-80
2022/03/23 08:19:20;;;;;;;37.70;23.63;;;9.50;79.40;;;;;;5002716;28;20506;-80
2022/03/23 08:21:47;;;;;;;31.07;22.23;;;9.60;80.30;;;;;;5005544;28;20802;-79
2022/03/23 08:24:16;;;;;;;30.70;22.77;;;9.70;78.50;;;;;;5006599;28;20495;-80
2022/03/23 08:26:43;;;;;;;35.30;22.27;;;9.80;79.90;;;;;;5001908;28;20490;-81
2022/03/23 08:29:10;;;;;;;31.53;21.73;;;9.80;93.70;;;;;;5001762;28;20457;-79
2022/03/23 08:31:37;;;;;;;31.87;22.37;;;10.00;80.30;;;;;;5000745;28;20429;-79
2022/03/23 08:34:05;;;;;;;32.10;19.80;;;10.10;82.60;;;;;;5001390;28;20462;-82
2022/03/23 08:36:34;;;;;;;26.07;19.50;;;10.20;91.50;;;;;;5001953;28;20492;-80
2022/03/23 08:39:00;;;;;;;28.50;21.03;;;10.30;93.50;;;;;;5002329;28;20497;-81
2022/03/23 08:41:28;;;;;;;31.23;20.87;;;10.40;91.50;;;;;;5002005;28;20473;-80
2022/03/23 08:43:54;;;;;;;30.97;18.90;;;10.50;77.60;;;;;;5004359;28;20499;-80
2022/03/23 08:46:21;;;;;;;25.17;19.57;;;10.50;89.40;;;;;;5007312;28;20426;-80
2022/03/23 08:48:49;;;;;;;28.97;18.60;;;10.60;78.30;;;;;;5002199;28;20452;-81
2022/03/23 08:51:16;;;;;;;27.73;20.27;;;10.70;74.20;;;;;;5001707;28;20962;-80
2022/03/23 08:53:44;;;;;;;25.13;18.63;;;10.70;81.50;;;;;;5001311;28;20491;-79
2022/03/23 08:56:11;;;;;;;24.70;19.60;;;10.80;89.20;;;;;;5001969;28;20497;-79
2022/03/23 08:58:38;;;;;;;24.93;17.40;;;11.00;79.90;;;;;;5001281;28;20419;-81
2022/03/23 09:01:05;;;;;;;28.13;20.50;;;11.00;83.90;;;;;;5004336;28;20999;-80
2022/03/23 09:03:32;;;;;;;27.90;19.20;;;11.00;69.10;;;;;;5013320;28;20475;-79
2022/03/23 09:05:59;;;;;;;26.60;18.10;;;11.10;77.00;;;;;;5013697;28;20444;-80
2022/03/23 09:08:26;;;;;;;25.13;17.67;;;11.20;84.20;;;;;;5011013;28;20422;-81
2022/03/23 09:10:54;;;;;;;28.77;18.87;;;11.30;90.40;;;;;;5010111;28;20443;-80
2022/03/23 09:13:21;;;;;;;24.47;17.10;;;11.40;90.30;;;;;;5010065;28;20476;-80
2022/03/23 09:15:48;;;;;;;22.90;19.17;;;11.50;90.10;;;;;;5007853;28;20471;-80
2022/03/23 09:18:15;;;;;;;25.13;19.47;;;11.50;83.80;;;;;;5015172;28;20884;-80
2022/03/23 09:20:41;;;;;;;25.77;20.57;;;11.60;85.50;;;;;;5007567;28;20464;-80
2022/03/23 09:23:09;;;;;;;28.70;19.80;;;11.70;87.60;;;;;;5010476;28;20447;-80
2022/03/23 09:25:36;;;;;;;29.27;20.30;;;11.80;71.60;;;;;;5010482;28;20470;-80
2022/03/23 09:28:05;;;;;;;25.17;19.90;;;11.90;71.00;;;;;;5008912;28;20448;-79
2022/03/23 09:30:32;;;;;;;29.37;17.47;;;11.90;71.00;;;;;;5010760;28;20459;-79
2022/03/23 09:33:00;;;;;;;25.20;19.27;;;12.00;76.20;;;;;;5008517;28;20462;-79
2022/03/23 09:35:27;;;;;;;28.07;19.37;;;12.10;78.90;;;;;;5006293;28;20430;-80
2022/03/23 09:37:56;;;;;;;23.80;19.03;;;12.20;79.80;;;;;;5001786;28;20948;-80
2022/03/23 09:40:24;;;;;;;26.23;18.70;;;12.40;77.70;;;;;;5007269;28;20473;-80
2022/03/23 09:42:51;;;;;;;32.80;20.37;;;12.50;71.80;;;;;;5014589;28;20448;-80
2022/03/23 09:45:32;;;;;;;24.10;17.87;;;12.60;64.20;;;;;;5015112;28;20456;-79
2022/03/23 09:47:59;;;;;;;24.20;19.03;;;12.70;77.30;;;;;;5015943;28;20444;-80
2022/03/23 09:50:28;;;;;;;24.57;17.17;;;12.80;70.20;;;;;;5016219;28;20449;-80
2022/03/23 09:52:55;;;;;;;21.93;17.50;;;12.80;66.20;;;;;;5009046;28;20459;-80
2022/03/23 09:55:21;;;;;;;23.70;16.53;;;12.90;71.10;;;;;;5001412;28;20418;-80
2022/03/23 09:57:48;;;;;;;24.00;17.73;;;12.90;65.50;;;;;;5001144;28;20509;-80
2022/03/23 10:00:15;;;;;;;23.63;18.37;;;13.00;68.20;;;;;;5001531;28;20464;-80
2022/03/23 10:03:22;;;;;;;22.63;17.37;;;13.20;67.70;;;;;;5011554;28;20444;-79
2022/03/23 10:06:29;;;;;;;28.53;17.63;;;13.30;67.10;;;;;;5000739;28;20428;-80
2022/03/23 10:09:26;;;;;;;28.67;17.93;;;13.30;58.40;;;;;;5001705;28;20434;-80
2022/03/23 10:12:39;;;;;;;32.43;23.43;;;13.40;57.50;;;;;;5007452;28;20407;-80
2022/03/23 10:15:43;;;;;;;29.57;20.53;;;13.50;62.00;;;;;;5010492;28;20480;-81
2022/03/23 10:18:44;;;;;;;22.43;17.33;;;13.60;65.50;;;;;;5006819;28;20547;-79
2022/03/23 10:21:12;;;;;;;23.17;19.00;;;13.60;54.70;;;;;;5005935;28;20487;-81
2022/03/23 10:23:39;;;;;;;25.33;18.33;;;13.70;65.00;;;;;;5005598;28;20445;-81
2022/03/23 10:26:15;;;;;;;26.43;18.87;;;13.80;55.70;;;;;;5003060;28;20430;-81
2022/03/23 10:28:42;;;;;;;21.93;16.13;;;13.80;51.60;;;;;;5000135;28;20463;-80
2022/03/23 10:31:16;;;;;;;25.10;17.93;;;13.80;59.60;;;;;;4999755;28;20475;-80
2022/03/23 10:33:44;;;;;;;21.57;17.57;;;13.90;58.00;;;;;;4999573;28;20478;-80
2022/03/23 10:36:12;;;;;;;22.53;18.17;;;13.90;56.70;;;;;;5001072;28;20431;-81
2022/03/23 10:38:40;;;;;;;23.60;17.20;;;14.10;63.50;;;;;;5004242;28;20535;-79
2022/03/23 10:41:10;;;;;;;24.73;17.50;;;14.20;65.80;;;;;;5005273;28;20468;-80
2022/03/23 10:43:55;;;;;;;23.87;17.17;;;14.20;57.20;;;;;;5008579;28;20468;-80
2022/03/23 10:46:22;;;;;;;23.90;18.60;;;14.30;61.40;;;;;;5010557;28;20462;-80
2022/03/23 10:48:59;;;;;;;24.30;17.27;;;14.30;64.00;;;;;;5001045;28;20451;-80
2022/03/23 10:51:28;;;;;;;28.87;16.63;;;14.50;60.00;;;;;;5000107;28;20403;-80
2022/03/23 10:53:56;;;;;;;29.17;19.37;;;14.60;59.30;;;;;;5000216;28;20507;-80
2022/03/23 10:56:30;;;;;;;28.97;16.80;;;14.60;60.90;;;;;;5000896;28;20456;-80
2022/03/23 10:59:21;;;;;;;24.90;17.87;;;14.70;75.50;;;;;;5000569;28;20586;-80
2022/03/23 11:02:00;;;;;;;22.33;18.03;;;14.70;61.50;;;;;;5000152;28;20440;-79
2022/03/23 11:04:29;;;;;;;25.67;18.60;;;14.70;57.80;;;;;;5000741;28;20428;-79
2022/03/23 11:06:58;;;;;;;22.13;18.13;;;14.90;64.20;;;;;;5003304;28;20427;-80
2022/03/23 11:18:07;;;;;;;24.67;17.57;;;15.30;79.60;;;;;;5002946;28;20403;-79
2022/03/23 11:20:45;;;;;;;23.43;17.53;;;15.30;77.30;;;;;;5003588;28;20480;-80
2022/03/23 11:23:25;;;;;;;22.57;17.60;;;15.20;77.60;;;;;;5004500;28;20480;-80
2022/03/23 11:25:53;;;;;;;22.73;16.30;;;15.70;72.40;;;;;;5004662;28;20485;-81
2022/03/23 11:28:21;;;;;;;22.10;18.10;;;15.60;81.80;;;;;;5005129;28;20454;-80
2022/03/23 11:30:49;;;;;;;21.93;17.93;;;15.60;78.20;;;;;;5004071;28;20461;-81
2022/03/23 11:33:18;;;;;;;24.90;18.00;;;15.70;64.90;;;;;;5007054;28;20441;-82
2022/03/23 11:35:48;;;;;;;25.27;18.23;;;15.90;77.30;;;;;;5005586;28;20420;-81
2022/03/23 11:38:17;;;;;;;25.90;19.37;;;15.90;81.40;;;;;;5003722;28;20503;-80
2022/03/23 11:40:46;;;;;;;22.33;18.67;;;15.90;76.30;;;;;;5006486;28;20503;-80
2022/03/23 11:43:13;;;;;;;25.70;18.03;;;16.20;67.90;;;;;;5004888;28;20456;-81
2022/03/23 11:45:42;;;;;;;19.47;17.20;;;16.10;72.00;;;;;;5010069;28;20427;-81
2022/03/23 11:48:15;;;;;;;23.37;17.03;;;16.10;77.00;;;;;;5013961;28;20453;-80
2022/03/23 11:50:57;;;;;;;22.13;18.20;;;16.20;69.30;;;;;;5007229;28;20451;-80
2022/03/23 11:53:40;;;;;;;25.20;18.73;;;16.10;67.60;;;;;;5011871;28;20487;-81
2022/03/23 11:56:10;;;;;;;23.60;17.67;;;16.00;60.10;;;;;;5005929;28;20434;-81
2022/03/23 11:58:38;;;;;;;25.07;19.10;;;16.10;60.70;;;;;;5004701;28;20480;-80
2022/03/23 12:01:10;;;;;;;22.93;17.13;;;16.20;64.70;;;;;;5003611;28;20468;-81
2022/03/23 12:03:51;;;;;;;20.77;16.60;;;16.20;62.20;;;;;;5004230;28;20449;-80
2022/03/23 12:06:19;;;;;;;23.10;16.63;;;16.10;67.70;;;;;;5003814;28;20385;-81
2022/03/23 12:08:49;;;;;;;21.00;15.70;;;16.20;62.10;;;;;;5004459;28;20450;-80
2022/03/23 12:11:33;;;;;;;17.10;15.20;;;16.30;63.00;;;;;;5007012;28;20480;-80
2022/03/23 12:14:01;;;;;;;20.23;17.30;;;16.20;56.90;;;;;;5011521;28;20470;-79
2022/03/23 12:17:01;;;;;;;21.80;17.37;;;16.50;66.70;;;;;;5012511;28;20492;-81
2022/03/23 12:19:30;;;;;;;22.50;17.87;;;16.60;65.70;;;;;;5004062;28;20467;-82
2022/03/23 12:22:11;;;;;;;19.37;15.67;;;16.50;50.50;;;;;;5003144;28;20477;-81
2022/03/23 12:24:44;;;;;;;21.27;14.90;;;16.60;46.70;;;;;;5003268;28;20426;-81
2022/03/23 12:27:17;;;;;;;19.30;17.20;;;16.70;38.70;;;;;;5006048;28;20435;-80
2022/03/23 12:29:48;;;;;;;18.90;16.33;;;16.80;66.10;;;;;;5023502;23;20504;-78
2022/03/23 12:32:15;;;;;;;19.67;16.33;;;16.80;42.40;;;;;;4996041;28;20412;-78
2022/03/23 12:34:43;;;;;;;21.13;17.30;;;16.80;39.90;;;;;;4996028;28;20492;-77
2022/03/23 12:37:12;;;;;;;23.30;17.03;;;16.90;43.70;;;;;;4996775;28;20450;-77
2022/03/23 12:39:41;;;;;;;21.33;17.03;;;17.00;43.20;;;;;;4997311;28;20578;-77
2022/03/23 12:42:21;;;;;;;26.40;18.90;;;17.00;40.30;;;;;;4998566;28;20495;-78
2022/03/23 12:44:49;;;;;;;23.30;17.47;;;17.00;43.20;;;;;;4999238;28;20494;-77
2022/03/23 12:47:19;;;;;;;19.30;17.03;;;17.10;46.10;;;;;;4999832;28;20447;-77
2022/03/23 12:58:10;;;;;;;22.43;17.70;;;17.10;40.80;;;;;;4997049;28;20434;-77
2022/03/23 13:00:40;;;;;;;24.77;19.57;;;17.00;46.60;;;;;;4997055;28;20505;-78
2022/03/23 13:03:46;;;;;;;21.67;17.37;;;17.10;40.40;;;;;;4996440;28;20455;-77
2022/03/23 13:06:14;;;;;;;22.30;18.43;;;17.20;45.70;;;;;;4997360;28;20547;-77
2022/03/23 13:08:48;;;;;;;22.77;18.70;;;17.20;45.10;;;;;;4996365;28;20455;-77
2022/03/23 13:11:17;;;;;;;20.53;17.77;;;17.00;45.00;;;;;;4997030;28;21031;-77